PILOTS ONLINE: 544    ATC ONLINE: 99

KVBG

Vandenberg Air Force Base

Location

City Lompoc
Country  United States
Latitude 34° 44' 14" N
Longitude 120° 35' 2" W
Elevation 369 ft
Type Large Airport

Map

Weather

METAR
2014/08/22 16:55
KVBG 221655Z COR VRB03KT 8SM FEW002 FEW005 FEW008 19/16 A2998 RMK AO2 SLP143 T01940156 $ 
TAF
2014/08/22 16:51
TAF TAF 
      AMD KVBG 2216/2320 31009KT 9999 SCT007 QNH2994INS 
      BECMG 2219/2220 31014KT 9999 SCT007 QNH2994INS 
      BECMG 2301/2302 33009KT 4800 BR BKN007 QNH2995INS 
      BECMG 2304/2305 33009KT 1600 BR OVC003 QNH2997INS 
      BECMG 2306/2307 33009KT 0800 FG VV002 QNH2999INS 
      BECMG 2315/2316 33009KT 1600 BR OVC003 QNH3001INS 
      BECMG 2316/2317 33009KT 4800 BR BKN005 QNH3000INS 
      BECMG 2317/2318 33009KT 9999 NSW SCT007 QNH3000INS 
      BECMG 2319/2320 31014KT 9999 SCT007 QNH2998INS TX22/2220Z TN14/2312Z 
      AMD 221643

Runways

12/30 15000 ft / 200 ft

Outbound flights

Callsign Flying to Pilot ATD/STD ETA Aircraft

Inbound flights

Callsign Flying from Pilot ATD ETA Aircraft